Middletown, OH

1:56 AM EDT on March 25, 2017 (GMT -0400)
Hook Field Municipal

Weather History for KMWO - April, 2013

Change the Weather History Date:

Monday, April 29, 2013

  Actual Average (KFFO) Record (KFFO)
Temperature  
Mean Temperature 58 °F -  
Max Temperature 65 °F 66 °F 77 °F (2004)
Min Temperature 52 °F 44 °F 35 °F (1997)
Degree Days  
Heating Degree Days 6    
Growing Degree Days 8 (Base 50)    
Moisture  
Dew Point 56 °F    
Average Humidity 92    
Maximum Humidity 100    
Minimum Humidity 75    
Precipitation  
Precipitation 0.00 in - - ()
Sea Level Pressure  
Sea Level Pressure 29.97 in    
Wind  
Wind Speed 4 mph (SW)    
Max Wind Speed 10 mph    
Max Gust Speed -    
Visibility 8 miles    
Events      
Averages and records for this station are not official NWS values.
T = Trace of Precipitation, MM = Missing Value Source: NWS Daily Summary

Daily Weather History Graph

Daily Weather History Graph

Search for Another Location

Airport or City:

Trip Planner

Search our weather history database for the weather conditions in past years. The results will help you decide how hot, cold, wet, or windy it might be!

Date:

Astronomy

Apr. 29, 2013 Rise Set
Actual Time 6:40 AM EDT 8:29 PM EDT
Civil Twilight 6:11 AM EDT 8:58 PM EDT
Nautical Twilight 5:36 AM EDT 9:33 PM EDT
Astronomical Twilight 4:59 AM EDT 10:11 PM EDT
Moon No Moon Rise 10:00 AM EDT (4/29)
Length of Visible Light 14h 46m
Length of Day
13h 48m
Waning Gibbous, 80% of the Moon is Illuminated
Apr 29
Waning Gibbous
May 2
Last Quarter
May 9
New
May 18
First Quarter
May 25
Full

Hourly Weather History & Observations

Time (EDT) Temp. Dew Point Humidity Pressure Visibility Wind Dir Wind Speed Gust Speed Precip Events Conditions
12:15 AM 55.4 °F 53.4 °F 93% 29.90 in 10.0 mi SW 4.6 mph - N/A   Clear
12:35 AM 52.7 °F 52.7 °F 100% 29.91 in 10.0 mi SW 4.6 mph - N/A   Mostly Cloudy
12:55 AM 52.7 °F 52.7 °F 100% 29.91 in 10.0 mi Calm Calm - N/A   Mostly Cloudy
1:15 AM 54.9 °F 54.9 °F 100% 29.91 in 10.0 mi Calm Calm - N/A   Mostly Cloudy
1:35 AM 54.5 °F 54.5 °F 100% 29.91 in 10.0 mi SSW 3.5 mph - N/A   Overcast
1:55 AM 55.4 °F 55.4 °F 100% 29.91 in 10.0 mi SSW 3.5 mph - N/A   Overcast
2:15 AM 55.4 °F 55.4 °F 100% 29.92 in 10.0 mi Calm Calm - N/A   Overcast
2:35 AM 55.4 °F 55.0 °F 99% 29.92 in 10.0 mi SSW 5.8 mph - N/A   Overcast
2:55 AM 55.4 °F 54.7 °F 97% 29.92 in 10.0 mi South 4.6 mph - N/A   Overcast
3:15 AM 55.4 °F 55.4 °F 100% 29.92 in 10.0 mi WSW 4.6 mph - N/A   Overcast
3:35 AM 55.4 °F 55.4 °F 100% 29.92 in 10.0 mi SW 5.8 mph - N/A   Overcast
3:55 AM 55.4 °F 55.4 °F 100% 29.93 in 10.0 mi WSW 5.8 mph - N/A   Light Drizzle
4:15 AM 55.4 °F 55.4 °F 100% 29.93 in 7.0 mi SW 3.5 mph - N/A   Light Drizzle
4:35 AM 55.4 °F 55.4 °F 100% 29.93 in 5.0 mi SW 5.8 mph - N/A   Overcast
4:55 AM 55.4 °F 55.4 °F 100% 29.94 in 10.0 mi SW 3.5 mph - N/A   Overcast
5:15 AM 55.4 °F 55.4 °F 100% 29.94 in 7.0 mi SSW 5.8 mph - N/A   Overcast
5:35 AM 55.4 °F 55.4 °F 100% 29.94 in 7.0 mi SW 4.6 mph - N/A   Overcast
5:55 AM 55.4 °F 55.4 °F 100% 29.95 in 5.0 mi SW 4.6 mph - N/A   Overcast
6:15 AM 55.4 °F 55.4 °F 100% 29.95 in 5.0 mi SW 4.6 mph - N/A   Overcast
6:35 AM 55.4 °F 55.4 °F 100% 29.96 in 5.0 mi SW 4.6 mph - N/A   Overcast
6:55 AM 55.4 °F 55.4 °F 100% 29.96 in 5.0 mi SSW 3.5 mph - N/A   Overcast
7:15 AM 55.4 °F 55.4 °F 100% 29.97 in 5.0 mi SSW 4.6 mph - N/A   Overcast
7:35 AM 55.4 °F 55.4 °F 100% 29.98 in 4.0 mi SW 5.8 mph - N/A   Overcast
7:55 AM 55.4 °F 55.4 °F 100% 29.98 in 4.0 mi SW 5.8 mph - N/A   Overcast
8:15 AM 55.8 °F 55.8 °F 100% 29.99 in 4.0 mi SW 4.6 mph - N/A   Overcast
8:35 AM 55.8 °F 55.8 °F 100% 29.99 in 4.0 mi SW 4.6 mph - N/A   Overcast
8:55 AM 57.7 °F 57.7 °F 100% 30.00 in 4.0 mi SW 5.8 mph - N/A   Overcast
9:15 AM 57.7 °F 57.7 °F 100% 30.00 in 4.0 mi WSW 3.5 mph - N/A   Overcast
9:35 AM 57.7 °F 57.7 °F 100% 30.00 in 5.0 mi West 4.6 mph - N/A   Overcast
9:55 AM 57.7 °F 57.7 °F 100% 30.00 in 5.0 mi West 4.6 mph - N/A   Overcast
10:15 AM 57.7 °F 57.4 °F 99% 30.00 in 7.0 mi WSW 5.8 mph - N/A   Overcast
10:35 AM 57.7 °F 57.0 °F 97% 30.00 in 7.0 mi West 6.9 mph - N/A   Overcast
10:55 AM 58.3 °F 57.2 °F 96% 30.01 in 7.0 mi West 3.5 mph - N/A   Overcast
11:15 AM 59.7 °F 57.0 °F 91% 30.00 in 10.0 mi Calm Calm - N/A   Overcast
11:35 AM 60.1 °F 56.8 °F 89% 30.01 in 10.0 mi SSW 6.9 mph - N/A   Overcast
11:55 AM 60.3 °F 57.2 °F 90% 30.01 in 10.0 mi WSW 6.9 mph - N/A   Overcast
12:15 PM 60.1 °F 57.0 °F 90% 30.02 in 10.0 mi WSW 5.8 mph - N/A   Overcast
12:35 PM 60.8 °F 57.4 °F 88% 30.02 in 10.0 mi WSW 5.8 mph - N/A   Overcast
12:55 PM 60.8 °F 56.8 °F 87% 30.01 in 10.0 mi SW 4.6 mph - N/A   Overcast
1:15 PM 61.3 °F 56.5 °F 84% 30.01 in 10.0 mi West 5.8 mph - N/A   Overcast
1:35 PM 61.3 °F 56.5 °F 84% 30.00 in 10.0 mi WSW 5.8 mph - N/A   Overcast
1:55 PM 61.3 °F 55.8 °F 82% 30.00 in 10.0 mi West 6.9 mph - N/A   Overcast
2:15 PM 62.6 °F 57.2 °F 82% 30.00 in 10.0 mi SW 5.8 mph - N/A   Overcast
2:35 PM 62.6 °F 56.3 °F 80% 30.00 in 10.0 mi WSW 6.9 mph - N/A   Overcast
2:55 PM 62.6 °F 57.9 °F 85% 29.99 in 10.0 mi SW 8.1 mph - N/A   Overcast
3:15 PM 62.6 °F 58.3 °F 86% 29.99 in 10.0 mi SSW 5.8 mph - N/A   Overcast
3:35 PM 62.6 °F 57.7 °F 84% 29.99 in 10.0 mi South 8.1 mph - N/A   Overcast
3:55 PM 62.6 °F 56.7 °F 81% 29.99 in 10.0 mi SSW 8.1 mph - N/A   Overcast
4:15 PM 62.6 °F 55.9 °F 79% 29.98 in 10.0 mi SSW 10.4 mph - N/A   Overcast
4:35 PM 63.3 °F 56.3 °F 78% 29.98 in 10.0 mi SW 8.1 mph - N/A   Overcast
4:55 PM 63.7 °F 56.1 °F 76% 29.98 in 10.0 mi SW 6.9 mph - N/A   Overcast
5:15 PM 63.9 °F 56.7 °F 77% 29.98 in 10.0 mi SSW 6.9 mph - N/A   Overcast
5:35 PM 63.7 °F 56.3 °F 77% 29.98 in 10.0 mi SW 5.8 mph - N/A   Overcast
5:55 PM 65.3 °F 57.2 °F 75% 29.98 in 10.0 mi SW 6.9 mph - N/A   Overcast
6:15 PM 65.3 °F 57.6 °F 76% 29.98 in 10.0 mi SW 5.8 mph - N/A   Overcast
6:35 PM 65.3 °F 57.6 °F 76% 29.98 in 10.0 mi SW 4.6 mph - N/A   Overcast
6:55 PM 64.2 °F 57.2 °F 78% 29.98 in 10.0 mi SSW 5.8 mph - N/A   Overcast
7:15 PM 62.6 °F 55.9 °F 79% 29.98 in 10.0 mi South 5.8 mph - N/A   Overcast
7:35 PM 62.6 °F 56.3 °F 80% 29.98 in 10.0 mi South 5.8 mph - N/A   Overcast
7:55 PM 62.6 °F 56.3 °F 80% 29.98 in 10.0 mi South 4.6 mph - N/A   Overcast
8:15 PM 62.2 °F 56.7 °F 82% 29.98 in 10.0 mi South 6.9 mph - N/A   Overcast
8:35 PM 60.1 °F 55.4 °F 85% 29.98 in 10.0 mi South 5.8 mph - N/A   Mostly Cloudy
8:55 PM 59.0 °F 54.9 °F 86% 29.98 in 10.0 mi South 5.8 mph - N/A   Scattered Clouds
9:15 PM 59.0 °F 55.6 °F 88% 29.98 in 10.0 mi SSE 3.5 mph - N/A   Clear
9:35 PM 57.7 °F 56.1 °F 94% 29.99 in 10.0 mi Calm Calm - N/A   Clear
9:55 PM 55.4 °F 54.5 °F 97% 29.99 in 7.0 mi Calm Calm - N/A   Clear
10:15 PM 54.1 °F 54.1 °F 100% 29.99 in 7.0 mi Calm Calm - N/A   Clear
10:35 PM 52.7 °F 52.7 °F 100% 29.99 in 3.0 mi Calm Calm - N/A   Clear
10:55 PM 52.7 °F 52.7 °F 100% 29.99 in 3.0 mi Calm Calm - N/A   Clear
11:35 PM 52.7 °F 52.7 °F 100% 29.99 in 7.0 mi Calm Calm - N/A   Clear
11:55 PM 52.7 °F 52.7 °F 100% 30.00 in 4.0 mi Calm Calm - N/A   Clear